Flight Track Log - Related Links

Times and Time Zones

All times are in EDT time to prevent confusion due to time zone crossing. See the DAL1981 flight status page for this flight to view local times or setup timezone preferences in your user account.

Time Position Orientation Groundspeed Altitude Reporting Facility
EDT Latitude Longitude Course Direction KTS MPH feet Rate Location/Type
Tue 06:11:40 AM 42.7631 -73.8089 180° South 149 171 1,100  Level Boston Center
Tue 06:12:16 AM 42.7964 -73.8097 359° North 202 232 2,100 3,023 Climbing Boston Center
Tue 06:13:49 AM 42.8850 -73.8908 326° Northwest 270 311 7,600 3,137 Climbing Boston Center
Tue 06:14:00 AM 42.5046 -74.1437 200° South  Level Estimated
Tue 06:14:49 AM 42.9339 -73.9772 308° West 276 318 10,100  Level Boston Center
Tue 06:15:00 AM 42.4229 -74.2571 198° South  Level Estimated
Tue 06:15:49 AM 42.9806 -74.0692 305° West 374 430 13,800  Level Boston Center
Tue 06:16:00 AM 42.3410 -74.3701 180° South  Level Estimated
Tue 06:16:49 AM 42.9561 -74.1764 253° West 432 497 16,200  Level Boston Center
Tue 06:17:49 AM 42.8803 -74.2253 205° Southwest 408 470 18,600 2,200 Climbing Boston Center
Tue 06:18:49 AM 42.7864 -74.2394 186° South 381 438 20,600 2,050 Climbing Boston Center
Tue 06:19:49 AM 42.6867 -74.2111 168° South 350 403 22,700 1,884 Climbing Boston Center
Tue 06:20:50 AM 42.6058 -74.1778 163° South 355 409 24,400 1,900 Climbing Boston Center
Tue 06:21:49 AM 42.4817 -74.1292 164° South 373 429 26,500 1,800 Climbing Boston Center
Tue 06:22:50 AM 42.3758 -74.0869 164° South 387 445 28,000 1,200 Climbing Boston Center
Tue 06:23:49 AM 42.2619 -74.0475 166° South 401 461 28,900 807 Climbing Boston Center
Tue 06:24:49 AM 42.1369 -74.0389 177° South 433 498 29,600 893 Climbing Boston Center
Tue 06:25:50 AM 42.0181 -74.0497 184° South 462 532 30,700 1,450 Climbing Boston Center
Tue 06:26:49 AM 41.8761 -74.0572 182° South 467 537 32,500 1,477 Climbing Boston Center
Tue 06:29:05 AM 41.6050 -74.0697 182° South 472 543 35,500 1,066 Climbing New York Center
Tue 06:30:06 AM 41.4861 -74.0750 182° South 453 521 36,000 252 Climbing New York Center
Tue 06:31:04 AM 41.3628 -74.0853 184° South 442 509 36,000  Level New York Center
Tue 06:32:05 AM 41.2397 -74.0931 183° South 442 509 36,000  Level New York Center
Tue 06:33:04 AM 41.1219 -74.1342 195° South 448 516 36,000  Level New York Center
Tue 06:34:03 AM 41.0411 -74.2678 231° Southwest 408 470 36,000 -50 Level New York Center
Tue 06:35:05 AM 40.9647 -74.3847 229° Southwest 413 475 35,900  Descending New York Center
Tue 06:36:05 AM 40.8922 -74.5042 231° Southwest 424 488 36,000 50 Climbing New York Center
Tue 06:37:04 AM 40.8156 -74.6233 230° Southwest 424 488 36,000  Level New York Center
Tue 06:38:05 AM 40.7428 -74.7425 231° Southwest 429 494 36,000  Level New York Center
Tue 06:39:06 AM 40.6700 -74.8614 231° Southwest 429 494 36,000  Level New York Center
Tue 06:40:04 AM 40.5928 -74.9797 229° Southwest 429 494 36,000  Level New York Center
Tue 06:41:05 AM 40.5219 -75.0956 231° Southwest 429 494 36,000  Level New York Center
Tue 06:42:05 AM 40.4447 -75.2136 229° Southwest 429 494 36,000  Level New York Center
Tue 06:43:06 AM 40.3692 -75.3339 231° Southwest 429 494 36,000  Level New York Center
Tue 06:44:04 AM 40.2981 -75.4489 231° Southwest 429 494 36,000  Level New York Center
Tue 06:45:04 AM 40.2244 -75.5664 231° Southwest 429 494 36,000  Level New York Center
Tue 06:46:05 AM 40.1586 -75.6950 236° Southwest 429 494 36,000  Level New York Center
Tue 06:47:05 AM 40.0972 -75.8181 237° Southwest 424 488 36,000  Level New York Center
Tue 06:48:05 AM 40.0336 -75.9408 236° Southwest 419 482 36,000  Level New York Center
Tue 06:49:04 AM 39.9719 -76.0636 237° Southwest 419 482 36,000  Level New York Center
Tue 06:50:04 AM 39.9058 -76.1858 235° Southwest 419 482 36,000  Level New York Center
Tue 06:51:49 AM 39.7942 -76.4044 236° Southwest 431 496 36,000  Level Washington Center
Tue 06:52:50 AM 39.7289 -76.5250 235° Southwest 426 490 36,000  Level Washington Center
Tue 06:53:50 AM 39.6675 -76.6456 237° Southwest 421 484 36,000  Level Washington Center
Tue 06:54:51 AM 39.6036 -76.7686 236° Southwest 421 484 36,000  Level Washington Center
Tue 06:55:48 AM 39.5400 -76.8886 236° Southwest 421 484 36,000  Level Washington Center
Tue 06:56:49 AM 39.4700 -77.0028 232° Southwest 421 484 36,000  Level Washington Center
Tue 06:57:50 AM 39.3814 -77.0978 220° Southwest 411 473 36,000  Level Washington Center
Tue 06:58:48 AM 39.3072 -77.1742 219° Southwest 416 479 36,000  Level Washington Center
Tue 06:59:50 AM 39.2017 -77.2842 219° Southwest 416 479 36,000  Level Washington Center
Tue 07:00:49 AM 39.1106 -77.3786 219° Southwest 426 490 36,000  Level Washington Center
Tue 07:01:49 AM 39.0217 -77.4672 218° Southwest 426 490 36,000  Level Washington Center
Tue 07:02:50 AM 38.9306 -77.5636 219° Southwest 426 490 36,000  Level Washington Center
Tue 07:03:51 AM 38.8414 -77.6544 218° Southwest 426 490 36,000  Level Washington Center
Tue 07:04:51 AM 38.7567 -77.7425 219° Southwest 426 490 36,000  Level Washington Center
Tue 07:05:49 AM 38.6675 -77.8331 218° Southwest 432 497 36,000  Level Washington Center
Tue 07:06:51 AM 38.5903 -77.9450 229° Southwest 418 481 36,000  Level Washington Center
Tue 07:07:49 AM 38.5231 -78.0622 234° Southwest 413 475 36,000  Level Washington Center
Tue 07:08:49 AM 38.4539 -78.1794 233° Southwest 418 481 36,000  Level Washington Center
Tue 07:09:50 AM 38.3867 -78.2961 234° Southwest 418 481 36,000  Level Washington Center
Tue 07:10:48 AM 38.3175 -78.4128 233° Southwest 418 481 36,000  Level Washington Center
Tue 07:11:49 AM 38.2456 -78.5422 235° Southwest 418 481 36,000  Level Washington Center
Tue 07:12:50 AM 38.1758 -78.6611 233° Southwest 418 481 36,000  Level Washington Center
Tue 07:13:51 AM 38.1061 -78.7769 233° Southwest 418 481 36,000  Level Washington Center
Tue 07:14:51 AM 38.0406 -78.8797 231° Southwest 424 488 36,000  Level Washington Center
Tue 07:15:48 AM 37.9706 -78.9978 233° Southwest 429 494 36,000  Level Washington Center
Tue 07:16:49 AM 37.8964 -79.1153 231° Southwest 429 494 36,000  Level Washington Center
Tue 07:17:50 AM 37.8092 -79.2375 228° Southwest 434 499 36,000  Level Washington Center
Tue 07:18:49 AM 37.7328 -79.3442 228° Southwest 434 499 36,000  Level Washington Center
Tue 07:19:50 AM 37.6500 -79.4556 227° Southwest 434 499 36,000  Level Washington Center
Tue 07:20:51 AM 37.5781 -79.5539 227° Southwest 434 499 36,000  Level Washington Center
Tue 07:21:48 AM 37.4886 -79.6722 226° Southwest 429 494 36,000  Level Washington Center
Tue 07:22:50 AM 37.4072 -79.7883 229° Southwest 437 503 36,000  Level Washington Center
Tue 07:24:31 AM 37.2750 -79.9625 226° Southwest 429 494 36,000  Level Atlanta Center
Tue 07:25:31 AM 37.1972 -80.0681 227° Southwest 429 494 36,000  Level Atlanta Center
Tue 07:26:31 AM 37.1092 -80.1869 227° Southwest 429 494 36,000  Level Atlanta Center
Tue 07:27:31 AM 37.0292 -80.2922 226° Southwest 429 494 36,000  Level Atlanta Center
Tue 07:28:31 AM 36.9511 -80.4025 228° Southwest 429 494 36,000  Level Atlanta Center
Tue 07:29:31 AM 36.8708 -80.5075 226° Southwest 429 494 36,000  Level Atlanta Center
Tue 07:30:31 AM 36.7986 -80.6064 228° Southwest 429 494 36,000  Level Atlanta Center
Tue 07:31:31 AM 36.7122 -80.7217 227° Southwest 429 494 36,000  Level Atlanta Center
Tue 07:32:31 AM 36.6314 -80.8283 227° Southwest 422 486 36,000  Level Atlanta Center
Tue 07:33:31 AM 36.5508 -80.9350 227° Southwest 429 494 36,000  Level Atlanta Center
Tue 07:34:31 AM 36.4681 -81.0442 227° Southwest 435 501 36,000  Level Atlanta Center
Tue 07:35:31 AM 36.3872 -81.1503 227° Southwest 428 493 36,000  Level Atlanta Center
Tue 07:36:31 AM 36.3064 -81.2589 227° Southwest 428 493 36,000  Level Atlanta Center
Tue 07:37:31 AM 36.2253 -81.3644 226° Southwest 433 498 36,000  Level Atlanta Center
Tue 07:38:31 AM 36.1419 -81.4753 227° Southwest 433 498 36,000  Level Atlanta Center
Tue 07:39:31 AM 36.0608 -81.5831 227° Southwest 433 498 36,000  Level Atlanta Center
Tue 07:40:31 AM 35.9875 -81.6803 227° Southwest 433 498 36,000  Level Atlanta Center
Tue 07:41:31 AM 35.9042 -81.7853 226° Southwest 433 498 36,000  Level Atlanta Center
Tue 07:42:31 AM 35.8206 -81.8928 226° Southwest 433 498 36,000  Level Atlanta Center
Tue 07:43:31 AM 35.7347 -81.9997 225° Southwest 433 498 36,000 -100 Level Atlanta Center
Tue 07:44:31 AM 35.6531 -82.1042 226° Southwest 433 498 35,800 -550 Descending Atlanta Center
Tue 07:45:31 AM 35.5669 -82.2108 225° Southwest 433 498 34,900 -1,050 Descending Atlanta Center
Tue 07:46:31 AM 35.4786 -82.3097 222° Southwest 433 498 33,700 -1,100 Descending Atlanta Center
Tue 07:47:31 AM 35.3883 -82.4133 223° Southwest 444 511 32,700 -800 Descending Atlanta Center
Tue 07:48:31 AM 35.2978 -82.5169 223° Southwest 444 511 32,100 -650 Descending Atlanta Center
Tue 07:49:31 AM 35.2072 -82.6178 222° Southwest 444 511 31,400 -850 Descending Atlanta Center
Tue 07:50:31 AM 35.1186 -82.7133 221° Southwest 439 505 30,400 -950 Descending Atlanta Center
Tue 07:51:31 AM 35.0319 -82.8111 223° Southwest 439 505 29,500 -850 Descending Atlanta Center
Tue 07:52:31 AM 34.9431 -82.9086 222° Southwest 440 506 28,700 -1,000 Descending Atlanta Center
Tue 07:53:31 AM 34.8481 -83.0111 222° Southwest 426 490 27,500 -1,100 Descending Atlanta Center
Tue 07:54:31 AM 34.7611 -83.1058 222° Southwest 426 490 26,500 -1,000 Descending Atlanta Center
Tue 07:55:31 AM 34.6806 -83.1950 222° Southwest 414 476 25,500 -950 Descending Atlanta Center
Tue 07:56:31 AM 34.5997 -83.2892 224° Southwest 407 468 24,600 -1,550 Descending Atlanta Center
Tue 07:57:31 AM 34.5147 -83.3783 221° Southwest 402 463 22,400 -2,200 Descending Atlanta Center
Tue 07:58:31 AM 34.4419 -83.4569 222° Southwest 402 463 20,200 -2,450 Descending Atlanta Center
Tue 07:59:31 AM 34.3631 -83.5456 223° Southwest 402 463 17,500 -2,850 Descending Atlanta Center
Tue 08:00:31 AM 34.2819 -83.6367 223° Southwest 397 457 14,500 -1,750 Descending Atlanta Center
Tue 08:01:31 AM 34.2008 -83.7197 220° Southwest 392 451 14,000 -250 Descending Atlanta Center
Tue 08:02:31 AM 34.1217 -83.8081 223° Southwest 392 451 14,000  Level Atlanta Center
Tue 08:03:33 AM 34.0333 -83.9000 221° Southwest 387 445 14,000 -621 Level Atlanta TRACON
Tue 08:04:27 AM 33.9667 -84.0000 231° Southwest 383 441 12,800 -1,368 Descending Atlanta TRACON
Tue 08:05:27 AM 33.9000 -84.1000 231° Southwest 372 428 11,400 -947 Descending Atlanta TRACON
Tue 08:06:21 AM 33.8500 -84.1833 234° Southwest 359 413 11,000 -222 Descending Atlanta TRACON
Tue 08:07:15 AM 33.8000 -84.2500 228° Southwest 330 380 11,000 -53 Level Atlanta TRACON
Tue 08:08:15 AM 33.7333 -84.3333 226° Southwest 306 352 10,900 -650 Descending Atlanta TRACON
Tue 08:09:15 AM 33.7333 -84.4333 270° West 292 336 9,700 -1,350 Descending Atlanta TRACON
Tue 08:10:15 AM 33.7333 -84.5333 270° West 273 314 8,200 -1,650 Descending Atlanta TRACON
Tue 08:11:15 AM 33.7333 -84.6167 270° West 271 312 6,400 -1,684 Descending Atlanta TRACON
Tue 08:12:09 AM 33.7333 -84.7000 270° West 270 311 5,000 -778 Descending Atlanta TRACON
Tue 08:13:03 AM 33.7333 -84.7833 270° West 264 304 5,000  Level Atlanta TRACON
Tue 08:14:03 AM 33.7000 -84.8333 231° Southwest 228 262 5,000  Level Atlanta TRACON
Tue 08:14:58 AM 33.6500 -84.8333 180° South 222 255 5,000  Level Atlanta TRACON
Tue 08:15:57 AM 33.6500 -84.7500 90° East 222 255 5,000  Level Atlanta TRACON
Tue 08:16:57 AM 33.6500 -84.6833 90° East 220 253 5,000  Level Atlanta TRACON

Login

Don't have an account? Register now (free) for customized features, flight alerts, and more!